sensor_id;sensor_type;location;lat;lon;timestamp;temperature;humidity
55331;DHT22;58851;42.984;20.336;2022-11-15T00:00:52;179.40;6502.40
55331;DHT22;58851;42.984;20.336;2022-11-15T00:03:20;179.50;6502.40
55331;DHT22;58851;42.984;20.336;2022-11-15T00:05:46;179.50;6502.40
55331;DHT22;58851;42.984;20.336;2022-11-15T00:08:12;179.50;6502.40
55331;DHT22;58851;42.984;20.336;2022-11-15T00:10:38;179.50;6502.40
55331;DHT22;58851;42.984;20.336;2022-11-15T00:13:06;179.50;6502.40
55331;DHT22;58851;42.984;20.336;2022-11-15T00:15:35;179.50;6502.40
55331;DHT22;58851;42.984;20.336;2022-11-15T00:18:02;179.30;6502.40
55331;DHT22;58851;42.984;20.336;2022-11-15T00:20:27;179.30;6502.40
55331;DHT22;58851;42.984;20.336;2022-11-15T00:22:53;179.40;6502.40
55331;DHT22;58851;42.984;20.336;2022-11-15T00:25:19;154.50;6502.40
55331;DHT22;58851;42.984;20.336;2022-11-15T00:27:45;179.20;6502.40
55331;DHT22;58851;42.984;20.336;2022-11-15T00:30:11;179.20;6502.40
55331;DHT22;58851;42.984;20.336;2022-11-15T00:32:38;179.30;6502.40
55331;DHT22;58851;42.984;20.336;2022-11-15T00:35:04;179.30;6502.40
55331;DHT22;58851;42.984;20.336;2022-11-15T00:37:30;179.30;6502.40
55331;DHT22;58851;42.984;20.336;2022-11-15T00:39:55;179.30;537.60
55331;DHT22;58851;42.984;20.336;2022-11-15T00:42:21;179.30;435.20
55331;DHT22;58851;42.984;20.336;2022-11-15T00:44:47;179.30;128.00
55331;DHT22;58851;42.984;20.336;2022-11-15T00:47:13;179.40;6502.40
55331;DHT22;58851;42.984;20.336;2022-11-15T00:49:38;179.40;230.40
55331;DHT22;58851;42.984;20.336;2022-11-15T00:52:04;179.30;563.20
55331;DHT22;58851;42.984;20.336;2022-11-15T00:54:30;179.20;6502.40
55331;DHT22;58851;42.984;20.336;2022-11-15T00:56:56;154.50;6502.40
55331;DHT22;58851;42.984;20.336;2022-11-15T00:59:22;154.40;6502.40
55331;DHT22;58851;42.984;20.336;2022-11-15T01:01:47;154.50;537.60
55331;DHT22;58851;42.984;20.336;2022-11-15T01:04:14;179.20;512.00
55331;DHT22;58851;42.984;20.336;2022-11-15T01:06:39;179.30;384.00
55331;DHT22;58851;42.984;20.336;2022-11-15T01:09:05;179.30;6502.40
55331;DHT22;58851;42.984;20.336;2022-11-15T01:11:31;179.30;409.60
55331;DHT22;58851;42.984;20.336;2022-11-15T01:13:57;179.30;332.80
55331;DHT22;58851;42.984;20.336;2022-11-15T01:16:22;179.40;128.00
55331;DHT22;58851;42.984;20.336;2022-11-15T01:18:48;179.30;6528.00
55331;DHT22;58851;42.984;20.336;2022-11-15T01:21:17;179.20;486.40
55331;DHT22;58851;42.984;20.336;2022-11-15T01:23:43;179.20;384.00
55331;DHT22;58851;42.984;20.336;2022-11-15T01:26:12;179.30;230.40
55331;DHT22;58851;42.984;20.336;2022-11-15T01:28:41;179.30;128.00
55331;DHT22;58851;42.984;20.336;2022-11-15T01:31:12;179.40;6502.40
55331;DHT22;58851;42.984;20.336;2022-11-15T01:33:38;179.50;6502.40
55331;DHT22;58851;42.984;20.336;2022-11-15T01:36:19;179.50;6502.40
55331;DHT22;58851;42.984;20.336;2022-11-15T01:38:54;179.60;6502.40
55331;DHT22;58851;42.984;20.336;2022-11-15T01:41:26;179.50;6502.40
55331;DHT22;58851;42.984;20.336;2022-11-15T01:43:54;179.40;384.00
55331;DHT22;58851;42.984;20.336;2022-11-15T01:46:36;179.50;230.40
55331;DHT22;58851;42.984;20.336;2022-11-15T01:49:13;179.50;486.40
55331;DHT22;58851;42.984;20.336;2022-11-15T01:51:40;179.60;128.00
55331;DHT22;58851;42.984;20.336;2022-11-15T01:54:10;179.60;6502.40
55331;DHT22;58851;42.984;20.336;2022-11-15T01:56:44;179.60;6502.40
55331;DHT22;58851;42.984;20.336;2022-11-15T01:59:11;179.70;128.00
55331;DHT22;58851;42.984;20.336;2022-11-15T02:01:37;179.70;6502.40
55331;DHT22;58851;42.984;20.336;2022-11-15T02:04:17;179.80;6502.40
55331;DHT22;58851;42.984;20.336;2022-11-15T02:06:46;179.80;6502.40
55331;DHT22;58851;42.984;20.336;2022-11-15T02:09:13;179.90;6502.40
55331;DHT22;58851;42.984;20.336;2022-11-15T02:11:40;179.90;6502.40
55331;DHT22;58851;42.984;20.336;2022-11-15T02:14:07;179.90;6502.40
55331;DHT22;58851;42.984;20.336;2022-11-15T02:22:24;180.10;6502.40
55331;DHT22;58851;42.984;20.336;2022-11-15T02:33:28;179.90;6502.40
55331;DHT22;58851;42.984;20.336;2022-11-15T02:36:02;180.10;6502.40
55331;DHT22;58851;42.984;20.336;2022-11-15T02:39:15;180.10;128.00
55331;DHT22;58851;42.984;20.336;2022-11-15T02:42:02;180.00;6502.40
55331;DHT22;58851;42.984;20.336;2022-11-15T02:44:37;180.10;486.40
55331;DHT22;58851;42.984;20.336;2022-11-15T02:47:08;204.80;358.40
55331;DHT22;58851;42.984;20.336;2022-11-15T02:49:52;180.10;6502.40
55331;DHT22;58851;42.984;20.336;2022-11-15T02:52:21;180.10;537.60
55331;DHT22;58851;42.984;20.336;2022-11-15T02:54:54;179.90;6502.40
55331;DHT22;58851;42.984;20.336;2022-11-15T03:00:14;179.60;6502.40
55331;DHT22;58851;42.984;20.336;2022-11-15T03:05:44;179.60;6502.40
55331;DHT22;58851;42.984;20.336;2022-11-15T03:08:31;179.60;6502.40
55331;DHT22;58851;42.984;20.336;2022-11-15T03:11:08;179.60;6502.40
55331;DHT22;58851;42.984;20.336;2022-11-15T03:14:08;179.70;6502.40
55331;DHT22;58851;42.984;20.336;2022-11-15T03:19:56;179.60;6502.40
55331;DHT22;58851;42.984;20.336;2022-11-15T03:22:24;179.50;6502.40
55331;DHT22;58851;42.984;20.336;2022-11-15T03:25:00;179.50;6502.40
55331;DHT22;58851;42.984;20.336;2022-11-15T03:27:31;179.60;6502.40
55331;DHT22;58851;42.984;20.336;2022-11-15T03:30:02;179.70;6502.40
55331;DHT22;58851;42.984;20.336;2022-11-15T03:32:31;179.70;6502.40
55331;DHT22;58851;42.984;20.336;2022-11-15T03:35:09;179.70;6502.40
55331;DHT22;58851;42.984;20.336;2022-11-15T03:40:08;179.90;6502.40
55331;DHT22;58851;42.984;20.336;2022-11-15T03:42:52;180.00;6502.40
55331;DHT22;58851;42.984;20.336;2022-11-15T03:45:39;180.10;6502.40
55331;DHT22;58851;42.984;20.336;2022-11-15T03:48:25;180.10;6502.40
55331;DHT22;58851;42.984;20.336;2022-11-15T03:50:52;180.10;6502.40
55331;DHT22;58851;42.984;20.336;2022-11-15T03:53:17;204.80;6502.40
55331;DHT22;58851;42.984;20.336;2022-11-15T03:55:43;204.80;6502.40
55331;DHT22;58851;42.984;20.336;2022-11-15T03:58:09;204.80;6502.40
55331;DHT22;58851;42.984;20.336;2022-11-15T04:00:35;204.90;6502.40
55331;DHT22;58851;42.984;20.336;2022-11-15T04:03:01;204.90;6502.40
55331;DHT22;58851;42.984;20.336;2022-11-15T04:05:27;204.90;6502.40
55331;DHT22;58851;42.984;20.336;2022-11-15T04:07:53;204.90;6502.40
55331;DHT22;58851;42.984;20.336;2022-11-15T04:10:19;204.80;6502.40
55331;DHT22;58851;42.984;20.336;2022-11-15T04:12:46;204.80;6502.40
55331;DHT22;58851;42.984;20.336;2022-11-15T04:15:21;204.90;6502.40
55331;DHT22;58851;42.984;20.336;2022-11-15T04:17:49;204.90;6502.40
55331;DHT22;58851;42.984;20.336;2022-11-15T04:20:18;204.90;6502.40
55331;DHT22;58851;42.984;20.336;2022-11-15T04:23:06;205.00;6502.40
55331;DHT22;58851;42.984;20.336;2022-11-15T04:25:52;205.00;6502.40
55331;DHT22;58851;42.984;20.336;2022-11-15T04:28:18;205.00;6502.40
55331;DHT22;58851;42.984;20.336;2022-11-15T04:30:44;205.00;6502.40
55331;DHT22;58851;42.984;20.336;2022-11-15T04:33:10;205.10;6502.40
55331;DHT22;58851;42.984;20.336;2022-11-15T04:35:36;205.10;6502.40
55331;DHT22;58851;42.984;20.336;2022-11-15T04:38:03;205.10;6502.40
55331;DHT22;58851;42.984;20.336;2022-11-15T04:40:29;205.10;6502.40
55331;DHT22;58851;42.984;20.336;2022-11-15T04:42:55;205.10;6502.40
55331;DHT22;58851;42.984;20.336;2022-11-15T04:45:21;205.00;6502.40
55331;DHT22;58851;42.984;20.336;2022-11-15T04:47:47;204.80;6502.40
55331;DHT22;58851;42.984;20.336;2022-11-15T04:50:15;204.80;6502.40
55331;DHT22;58851;42.984;20.336;2022-11-15T04:52:42;204.80;6502.40
55331;DHT22;58851;42.984;20.336;2022-11-15T04:55:10;204.80;6502.40
55331;DHT22;58851;42.984;20.336;2022-11-15T04:57:36;204.80;6502.40
55331;DHT22;58851;42.984;20.336;2022-11-15T05:00:12;204.80;6502.40
55331;DHT22;58851;42.984;20.336;2022-11-15T05:02:38;204.90;6502.40
55331;DHT22;58851;42.984;20.336;2022-11-15T05:05:23;205.00;6502.40
55331;DHT22;58851;42.984;20.336;2022-11-15T05:07:49;205.00;6502.40
55331;DHT22;58851;42.984;20.336;2022-11-15T05:10:15;205.10;6502.40
55331;DHT22;58851;42.984;20.336;2022-11-15T05:12:41;205.10;6502.40
55331;DHT22;58851;42.984;20.336;2022-11-15T05:15:08;205.10;6502.40
55331;DHT22;58851;42.984;20.336;2022-11-15T05:17:34;205.10;6502.40
55331;DHT22;58851;42.984;20.336;2022-11-15T05:20:00;205.10;6502.40
55331;DHT22;58851;42.984;20.336;2022-11-15T05:22:27;205.10;6502.40
55331;DHT22;58851;42.984;20.336;2022-11-15T05:24:53;205.00;6502.40
55331;DHT22;58851;42.984;20.336;2022-11-15T05:27:19;205.00;6502.40
55331;DHT22;58851;42.984;20.336;2022-11-15T05:29:45;204.80;6502.40
55331;DHT22;58851;42.984;20.336;2022-11-15T05:32:11;180.00;6502.40
55331;DHT22;58851;42.984;20.336;2022-11-15T05:34:38;180.10;6502.40
55331;DHT22;58851;42.984;20.336;2022-11-15T05:37:04;204.80;6502.40
55331;DHT22;58851;42.984;20.336;2022-11-15T05:39:30;204.90;6502.40
55331;DHT22;58851;42.984;20.336;2022-11-15T05:42:02;204.90;6502.40
55331;DHT22;58851;42.984;20.336;2022-11-15T05:44:31;205.00;6502.40
55331;DHT22;58851;42.984;20.336;2022-11-15T05:46:58;205.10;6502.40
55331;DHT22;58851;42.984;20.336;2022-11-15T05:49:27;205.10;6502.40
55331;DHT22;58851;42.984;20.336;2022-11-15T05:51:56;205.10;6502.40
55331;DHT22;58851;42.984;20.336;2022-11-15T05:54:23;205.20;6502.40
55331;DHT22;58851;42.984;20.336;2022-11-15T05:56:50;205.20;6502.40
55331;DHT22;58851;42.984;20.336;2022-11-15T05:59:17;205.30;6502.40
55331;DHT22;58851;42.984;20.336;2022-11-15T06:01:43;205.30;6502.40
55331;DHT22;58851;42.984;20.336;2022-11-15T06:04:09;205.30;6502.40
55331;DHT22;58851;42.984;20.336;2022-11-15T06:06:34;205.20;6502.40
55331;DHT22;58851;42.984;20.336;2022-11-15T06:09:00;205.10;6502.40
55331;DHT22;58851;42.984;20.336;2022-11-15T06:11:26;205.30;6502.40
55331;DHT22;58851;42.984;20.336;2022-11-15T06:13:52;205.40;6502.40
55331;DHT22;58851;42.984;20.336;2022-11-15T06:16:18;205.40;6502.40
55331;DHT22;58851;42.984;20.336;2022-11-15T06:18:43;205.50;6502.40
55331;DHT22;58851;42.984;20.336;2022-11-15T06:21:09;205.60;6502.40
55331;DHT22;58851;42.984;20.336;2022-11-15T06:23:35;205.60;6502.40
55331;DHT22;58851;42.984;20.336;2022-11-15T06:26:02;205.50;6502.40
55331;DHT22;58851;42.984;20.336;2022-11-15T06:28:29;205.60;6502.40
55331;DHT22;58851;42.984;20.336;2022-11-15T06:30:56;205.60;6502.40
55331;DHT22;58851;42.984;20.336;2022-11-15T06:33:22;205.70;537.60
55331;DHT22;58851;42.984;20.336;2022-11-15T06:35:48;205.60;6502.40
55331;DHT22;58851;42.984;20.336;2022-11-15T06:38:14;205.60;6502.40
55331;DHT22;58851;42.984;20.336;2022-11-15T06:40:40;205.60;6502.40
55331;DHT22;58851;42.984;20.336;2022-11-15T06:43:06;205.60;6502.40
55331;DHT22;58851;42.984;20.336;2022-11-15T06:45:33;205.70;537.60
55331;DHT22;58851;42.984;20.336;2022-11-15T06:47:58;230.40;409.60
55331;DHT22;58851;42.984;20.336;2022-11-15T06:50:24;230.50;358.40
55331;DHT22;58851;42.984;20.336;2022-11-15T06:52:50;230.50;256.00
55331;DHT22;58851;42.984;20.336;2022-11-15T06:55:16;230.60;435.20
55331;DHT22;58851;42.984;20.336;2022-11-15T06:57:49;230.70;537.60
55331;DHT22;58851;42.984;20.336;2022-11-15T07:00:16;230.80;128.00
55331;DHT22;58851;42.984;20.336;2022-11-15T07:02:43;230.90;6502.40
55331;DHT22;58851;42.984;20.336;2022-11-15T07:05:08;230.90;6502.40
55331;DHT22;58851;42.984;20.336;2022-11-15T07:07:34;230.90;6502.40
55331;DHT22;58851;42.984;20.336;2022-11-15T07:10:00;230.90;6502.40
55331;DHT22;58851;42.984;20.336;2022-11-15T07:12:26;230.90;128.00
55331;DHT22;58851;42.984;20.336;2022-11-15T07:14:52;231.00;6502.40
55331;DHT22;58851;42.984;20.336;2022-11-15T07:17:18;231.20;6502.40
55331;DHT22;58851;42.984;20.336;2022-11-15T07:19:43;231.20;6502.40
55331;DHT22;58851;42.984;20.336;2022-11-15T07:22:09;256.00;6502.40
55331;DHT22;58851;42.984;20.336;2022-11-15T07:24:35;256.00;6502.40
55331;DHT22;58851;42.984;20.336;2022-11-15T07:27:01;256.10;6502.40
55331;DHT22;58851;42.984;20.336;2022-11-15T07:29:26;256.20;6502.40
55331;DHT22;58851;42.984;20.336;2022-11-15T07:31:52;256.20;6502.40
55331;DHT22;58851;42.984;20.336;2022-11-15T07:34:18;256.20;6502.40
55331;DHT22;58851;42.984;20.336;2022-11-15T07:36:44;256.40;6502.40
55331;DHT22;58851;42.984;20.336;2022-11-15T07:39:10;256.40;6502.40
55331;DHT22;58851;42.984;20.336;2022-11-15T07:41:37;256.40;6502.40
55331;DHT22;58851;42.984;20.336;2022-11-15T07:44:04;256.40;6502.40
55331;DHT22;58851;42.984;20.336;2022-11-15T07:46:31;256.50;6502.40
55331;DHT22;58851;42.984;20.336;2022-11-15T07:48:57;256.40;6502.40
55331;DHT22;58851;42.984;20.336;2022-11-15T07:51:22;256.60;6502.40
55331;DHT22;58851;42.984;20.336;2022-11-15T07:53:48;256.60;6502.40
55331;DHT22;58851;42.984;20.336;2022-11-15T07:56:14;256.80;6502.40
55331;DHT22;58851;42.984;20.336;2022-11-15T07:58:41;256.80;6502.40
55331;DHT22;58851;42.984;20.336;2022-11-15T08:01:08;256.80;6502.40
55331;DHT22;58851;42.984;20.336;2022-11-15T08:03:35;256.80;6502.40
55331;DHT22;58851;42.984;20.336;2022-11-15T08:06:01;256.80;6502.40
55331;DHT22;58851;42.984;20.336;2022-11-15T08:08:27;256.90;6502.40
55331;DHT22;58851;42.984;20.336;2022-11-15T08:10:53;281.60;6528.00
55331;DHT22;58851;42.984;20.336;2022-11-15T08:13:19;281.80;6528.00
55331;DHT22;58851;42.984;20.336;2022-11-15T08:15:46;282.00;6528.00
55331;DHT22;58851;42.984;20.336;2022-11-15T08:18:14;282.10;6528.00
55331;DHT22;58851;42.984;20.336;2022-11-15T08:20:40;282.20;6528.00
55331;DHT22;58851;42.984;20.336;2022-11-15T08:23:07;282.30;6528.00
55331;DHT22;58851;42.984;20.336;2022-11-15T08:25:34;282.50;6528.00
55331;DHT22;58851;42.984;20.336;2022-11-15T08:28:04;282.50;6528.00
55331;DHT22;58851;42.984;20.336;2022-11-15T08:30:31;307.20;128.00
55331;DHT22;58851;42.984;20.336;2022-11-15T08:32:59;307.30;128.00
55331;DHT22;58851;42.984;20.336;2022-11-15T08:35:25;307.40;128.00
55331;DHT22;58851;42.984;20.336;2022-11-15T08:37:53;307.60;128.00
55331;DHT22;58851;42.984;20.336;2022-11-15T08:40:19;307.50;128.00
55331;DHT22;58851;42.984;20.336;2022-11-15T08:42:48;307.60;128.00
55331;DHT22;58851;42.984;20.336;2022-11-15T08:45:14;307.70;128.00
55331;DHT22;58851;42.984;20.336;2022-11-15T08:47:40;307.90;128.00
55331;DHT22;58851;42.984;20.336;2022-11-15T08:50:06;308.10;128.00
55331;DHT22;58851;42.984;20.336;2022-11-15T08:52:33;332.80;128.00
55331;DHT22;58851;42.984;20.336;2022-11-15T08:54:59;332.90;128.00
55331;DHT22;58851;42.984;20.336;2022-11-15T08:57:27;333.00;128.00
55331;DHT22;58851;42.984;20.336;2022-11-15T08:59:53;333.10;128.00
55331;DHT22;58851;42.984;20.336;2022-11-15T09:02:19;333.30;128.00
55331;DHT22;58851;42.984;20.336;2022-11-15T09:04:45;333.30;128.00
55331;DHT22;58851;42.984;20.336;2022-11-15T09:07:11;333.50;128.00
55331;DHT22;58851;42.984;20.336;2022-11-15T09:09:37;333.50;128.00
55331;DHT22;58851;42.984;20.336;2022-11-15T09:12:04;333.60;128.00
55331;DHT22;58851;42.984;20.336;2022-11-15T09:14:30;333.60;128.00
55331;DHT22;58851;42.984;20.336;2022-11-15T09:16:56;358.40;128.00
55331;DHT22;58851;42.984;20.336;2022-11-15T09:19:22;358.50;128.00
55331;DHT22;58851;42.984;20.336;2022-11-15T09:21:48;358.60;128.00
55331;DHT22;58851;42.984;20.336;2022-11-15T09:24:13;358.60;128.00
55331;DHT22;58851;42.984;20.336;2022-11-15T09:26:40;358.60;537.60
55331;DHT22;58851;42.984;20.336;2022-11-15T09:29:05;358.60;128.00
55331;DHT22;58851;42.984;20.336;2022-11-15T09:31:31;358.70;128.00
55331;DHT22;58851;42.984;20.336;2022-11-15T09:33:57;358.80;307.20
55331;DHT22;58851;42.984;20.336;2022-11-15T09:36:23;358.70;307.20
55331;DHT22;58851;42.984;20.336;2022-11-15T09:38:49;358.80;128.00
55331;DHT22;58851;42.984;20.336;2022-11-15T09:44:08;359.00;128.00
55331;DHT22;58851;42.984;20.336;2022-11-15T09:46:49;359.30;486.40
55331;DHT22;58851;42.984;20.336;2022-11-15T09:49:19;359.30;358.40
55331;DHT22;58851;42.984;20.336;2022-11-15T09:51:47;384.00;409.60
55331;DHT22;58851;42.984;20.336;2022-11-15T09:56:47;384.10;204.80
55331;DHT22;58851;42.984;20.336;2022-11-15T10:02:33;384.00;153.60
55331;DHT22;58851;42.984;20.336;2022-11-15T10:05:02;384.20;128.00
55331;DHT22;58851;42.984;20.336;2022-11-15T10:13:00;384.30;128.00
55331;DHT22;58851;42.984;20.336;2022-11-15T10:15:26;384.30;128.00
55331;DHT22;58851;42.984;20.336;2022-11-15T10:18:18;384.60;128.00
55331;DHT22;58851;42.984;20.336;2022-11-15T10:20:58;384.60;128.00
55331;DHT22;58851;42.984;20.336;2022-11-15T10:23:24;384.70;128.00
55331;DHT22;58851;42.984;20.336;2022-11-15T10:25:59;384.80;128.00
55331;DHT22;58851;42.984;20.336;2022-11-15T10:28:29;384.80;128.00
55331;DHT22;58851;42.984;20.336;2022-11-15T10:30:57;384.90;128.00
55331;DHT22;58851;42.984;20.336;2022-11-15T10:33:32;409.60;128.00
55331;DHT22;58851;42.984;20.336;2022-11-15T10:41:17;409.60;128.00
55331;DHT22;58851;42.984;20.336;2022-11-15T10:43:43;384.90;128.00
55331;DHT22;58851;42.984;20.336;2022-11-15T10:46:21;409.60;128.00
55331;DHT22;58851;42.984;20.336;2022-11-15T10:48:47;409.60;128.00
55331;DHT22;58851;42.984;20.336;2022-11-15T10:51:24;409.70;128.00
55331;DHT22;58851;42.984;20.336;2022-11-15T10:53:59;409.60;128.00
55331;DHT22;58851;42.984;20.336;2022-11-15T10:56:27;409.70;128.00
55331;DHT22;58851;42.984;20.336;2022-11-15T10:58:57;409.90;128.00
55331;DHT22;58851;42.984;20.336;2022-11-15T11:01:25;409.90;128.00
55331;DHT22;58851;42.984;20.336;2022-11-15T11:04:05;410.20;128.00
55331;DHT22;58851;42.984;20.336;2022-11-15T11:06:49;410.50;128.00
55331;DHT22;58851;42.984;20.336;2022-11-15T11:09:55;435.40;128.00
55331;DHT22;58851;42.984;20.336;2022-11-15T11:12:10;435.70;128.00
55331;DHT22;58851;42.984;20.336;2022-11-15T11:14:38;435.90;128.00
55331;DHT22;58851;42.984;20.336;2022-11-15T11:20:15;435.80;128.00
55331;DHT22;58851;42.984;20.336;2022-11-15T11:23:06;436.00;128.00
55331;DHT22;58851;42.984;20.336;2022-11-15T11:33:57;461.10;128.00
55331;DHT22;58851;42.984;20.336;2022-11-15T11:47:32;486.50;128.00
55331;DHT22;58851;42.984;20.336;2022-11-15T11:50:15;486.90;128.00
55331;DHT22;58851;42.984;20.336;2022-11-15T11:53:15;486.90;128.00
55331;DHT22;58851;42.984;20.336;2022-11-15T11:55:51;486.70;128.00
55331;DHT22;58851;42.984;20.336;2022-11-15T11:58:19;486.40;128.00
55331;DHT22;58851;42.984;20.336;2022-11-15T12:00:54;486.40;128.00
55331;DHT22;58851;42.984;20.336;2022-11-15T12:12:01;461.40;128.00
55331;DHT22;58851;42.984;20.336;2022-11-15T12:14:51;461.10;128.00
55331;DHT22;58851;42.984;20.336;2022-11-15T12:17:24;461.00;128.00
55331;DHT22;58851;42.984;20.336;2022-11-15T12:19:55;461.10;128.00
55331;DHT22;58851;42.984;20.336;2022-11-15T12:22:39;461.10;128.00
55331;DHT22;58851;42.984;20.336;2022-11-15T12:25:18;460.80;128.00
55331;DHT22;58851;42.984;20.336;2022-11-15T12:28:07;436.10;128.00
55331;DHT22;58851;42.984;20.336;2022-11-15T12:30:50;460.80;128.00
55331;DHT22;58851;42.984;20.336;2022-11-15T12:33:37;460.80;128.00
55331;DHT22;58851;42.984;20.336;2022-11-15T12:36:09;436.00;128.00
55331;DHT22;58851;42.984;20.336;2022-11-15T12:41:27;435.60;128.00
55331;DHT22;58851;42.984;20.336;2022-11-15T12:43:54;435.40;128.00
55331;DHT22;58851;42.984;20.336;2022-11-15T13:00:00;435.30;128.00
55331;DHT22;58851;42.984;20.336;2022-11-15T13:02:43;410.50;128.00
55331;DHT22;58851;42.984;20.336;2022-11-15T13:17:54;410.20;128.00
55331;DHT22;58851;42.984;20.336;2022-11-15T13:20:31;410.20;128.00
55331;DHT22;58851;42.984;20.336;2022-11-15T13:23:12;410.10;128.00
55331;DHT22;58851;42.984;20.336;2022-11-15T13:25:45;410.10;128.00
55331;DHT22;58851;42.984;20.336;2022-11-15T13:30:50;409.90;128.00
55331;DHT22;58851;42.984;20.336;2022-11-15T13:33:36;409.80;128.00
55331;DHT22;58851;42.984;20.336;2022-11-15T13:36:11;409.80;128.00
55331;DHT22;58851;42.984;20.336;2022-11-15T13:38:40;409.90;128.00
55331;DHT22;58851;42.984;20.336;2022-11-15T13:41:20;410.00;128.00
55331;DHT22;58851;42.984;20.336;2022-11-15T13:43:48;410.00;128.00
55331;DHT22;58851;42.984;20.336;2022-11-15T13:48:44;409.90;128.00
55331;DHT22;58851;42.984;20.336;2022-11-15T13:51:21;409.80;128.00
55331;DHT22;58851;42.984;20.336;2022-11-15T13:54:13;409.60;128.00
55331;DHT22;58851;42.984;20.336;2022-11-15T13:56:45;384.60;128.00
55331;DHT22;58851;42.984;20.336;2022-11-15T13:59:29;384.50;128.00
55331;DHT22;58851;42.984;20.336;2022-11-15T14:02:13;384.40;128.00
55331;DHT22;58851;42.984;20.336;2022-11-15T14:04:54;384.20;128.00
55331;DHT22;58851;42.984;20.336;2022-11-15T14:07:23;384.20;128.00
55331;DHT22;58851;42.984;20.336;2022-11-15T14:09:50;384.20;128.00
55331;DHT22;58851;42.984;20.336;2022-11-15T14:12:33;384.10;128.00
55331;DHT22;58851;42.984;20.336;2022-11-15T14:15:18;384.10;128.00
55331;DHT22;58851;42.984;20.336;2022-11-15T14:17:44;384.00;128.00
55331;DHT22;58851;42.984;20.336;2022-11-15T14:20:28;384.00;128.00
55331;DHT22;58851;42.984;20.336;2022-11-15T14:22:57;384.00;128.00
55331;DHT22;58851;42.984;20.336;2022-11-15T14:25:34;384.00;128.00
55331;DHT22;58851;42.984;20.336;2022-11-15T14:28:29;384.00;128.00
55331;DHT22;58851;42.984;20.336;2022-11-15T14:30:57;384.00;128.00
55331;DHT22;58851;42.984;20.336;2022-11-15T14:35:58;359.30;128.00
55331;DHT22;58851;42.984;20.336;2022-11-15T14:38:27;359.30;128.00
55331;DHT22;58851;42.984;20.336;2022-11-15T14:40:54;359.30;128.00
55331;DHT22;58851;42.984;20.336;2022-11-15T14:43:21;359.30;128.00
55331;DHT22;58851;42.984;20.336;2022-11-15T14:45:47;359.30;128.00
55331;DHT22;58851;42.984;20.336;2022-11-15T14:48:14;359.30;128.00
55331;DHT22;58851;42.984;20.336;2022-11-15T14:50:40;359.30;128.00
55331;DHT22;58851;42.984;20.336;2022-11-15T14:53:10;359.30;128.00
55331;DHT22;58851;42.984;20.336;2022-11-15T14:55:36;359.20;128.00
55331;DHT22;58851;42.984;20.336;2022-11-15T14:58:04;359.20;128.00
55331;DHT22;58851;42.984;20.336;2022-11-15T15:00:31;359.10;128.00
55331;DHT22;58851;42.984;20.336;2022-11-15T15:02:57;359.10;128.00
55331;DHT22;58851;42.984;20.336;2022-11-15T15:05:39;359.10;128.00
55331;DHT22;58851;42.984;20.336;2022-11-15T15:08:06;359.10;128.00
55331;DHT22;58851;42.984;20.336;2022-11-15T15:10:43;359.20;128.00
55331;DHT22;58851;42.984;20.336;2022-11-15T15:13:17;359.10;128.00
55331;DHT22;58851;42.984;20.336;2022-11-15T15:15:43;359.00;128.00
55331;DHT22;58851;42.984;20.336;2022-11-15T15:18:09;359.00;128.00
55331;DHT22;58851;42.984;20.336;2022-11-15T15:20:38;359.00;128.00
55331;DHT22;58851;42.984;20.336;2022-11-15T15:23:07;359.00;128.00
55331;DHT22;58851;42.984;20.336;2022-11-15T15:25:34;358.80;128.00
55331;DHT22;58851;42.984;20.336;2022-11-15T15:28:01;358.80;128.00
55331;DHT22;58851;42.984;20.336;2022-11-15T15:30:29;358.60;128.00
55331;DHT22;58851;42.984;20.336;2022-11-15T15:32:55;358.60;128.00
55331;DHT22;58851;42.984;20.336;2022-11-15T15:35:21;358.40;128.00
55331;DHT22;58851;42.984;20.336;2022-11-15T15:37:48;358.40;128.00
55331;DHT22;58851;42.984;20.336;2022-11-15T15:40:20;333.70;128.00
55331;DHT22;58851;42.984;20.336;2022-11-15T15:42:47;333.50;128.00
55331;DHT22;58851;42.984;20.336;2022-11-15T15:45:14;333.30;128.00
55331;DHT22;58851;42.984;20.336;2022-11-15T15:47:41;333.20;128.00
55331;DHT22;58851;42.984;20.336;2022-11-15T15:52:41;332.90;128.00
55331;DHT22;58851;42.984;20.336;2022-11-15T15:55:07;332.80;128.00
55331;DHT22;58851;42.984;20.336;2022-11-15T15:57:34;308.00;128.00
55331;DHT22;58851;42.984;20.336;2022-11-15T16:00:00;308.10;128.00
55331;DHT22;58851;42.984;20.336;2022-11-15T16:02:25;308.10;128.00
55331;DHT22;58851;42.984;20.336;2022-11-15T16:04:51;308.00;128.00
55331;DHT22;58851;42.984;20.336;2022-11-15T16:07:21;307.90;128.00
55331;DHT22;58851;42.984;20.336;2022-11-15T16:09:47;307.70;128.00
55331;DHT22;58851;42.984;20.336;2022-11-15T16:12:33;307.70;128.00
55331;DHT22;58851;42.984;20.336;2022-11-15T16:15:00;307.40;128.00
55331;DHT22;58851;42.984;20.336;2022-11-15T16:17:31;307.40;128.00
55331;DHT22;58851;42.984;20.336;2022-11-15T16:19:58;307.20;128.00
55331;DHT22;58851;42.984;20.336;2022-11-15T16:22:23;282.50;6528.00
55331;DHT22;58851;42.984;20.336;2022-11-15T16:24:49;282.30;6528.00
55331;DHT22;58851;42.984;20.336;2022-11-15T16:27:17;282.20;6528.00
55331;DHT22;58851;42.984;20.336;2022-11-15T16:29:44;282.10;6528.00
55331;DHT22;58851;42.984;20.336;2022-11-15T16:32:10;282.10;6528.00
55331;DHT22;58851;42.984;20.336;2022-11-15T16:34:36;282.10;6528.00
55331;DHT22;58851;42.984;20.336;2022-11-15T16:37:03;282.00;6528.00
55331;DHT22;58851;42.984;20.336;2022-11-15T16:39:29;282.00;6528.00
55331;DHT22;58851;42.984;20.336;2022-11-15T16:41:59;282.00;6528.00
55331;DHT22;58851;42.984;20.336;2022-11-15T16:44:25;281.80;6528.00
55331;DHT22;58851;42.984;20.336;2022-11-15T16:46:52;256.80;6502.40
55331;DHT22;58851;42.984;20.336;2022-11-15T16:49:19;256.80;204.80
55331;DHT22;58851;42.984;20.336;2022-11-15T16:51:46;256.70;307.20